Time;durP1;ratioP1;P1;durP2;ratioP2;P2;SDS_P1;SDS_P2;PMS_P1;PMS_P2;Temp;Humidity;BMP_temperature;BMP_pressure;BME280_temperature;BME280_humidity;BME280_pressure;Samples;Min_cycle;Max_cycle;Signal;HPM_P1;HPM_P2
2023/08/21 00:02:16;;;;;;;4.30;1.85;;;;;;;18.14;100.00;102284.84;4916180;29;20087;-80
2023/08/21 00:04:41;;;;;;;6.05;1.70;;;;;;;18.00;100.00;102265.78;4916031;29;20032;-80
2023/08/21 00:07:09;;;;;;;4.85;2.15;;;;;;;18.06;100.00;102278.38;4916557;29;20028;-80
2023/08/21 00:09:34;;;;;;;6.78;2.30;;;;;;;17.90;100.00;102259.53;4919852;29;20534;-80
2023/08/21 00:11:59;;;;;;;6.13;2.08;;;;;;;17.98;100.00;102283.31;4920289;29;20032;-80
2023/08/21 00:14:25;;;;;;;6.30;2.03;;;;;;;17.84;100.00;102264.34;4920048;29;20147;-80
2023/08/21 00:16:50;;;;;;;8.25;2.30;;;;;;;17.92;100.00;102282.94;4920042;29;20051;-80
2023/08/21 00:19:16;;;;;;;7.75;2.40;;;;;;;17.91;100.00;102276.88;4919884;29;20471;-80
2023/08/21 00:21:41;;;;;;;6.07;2.35;;;;;;;17.87;100.00;102275.41;4920027;29;20038;-80
2023/08/21 00:24:06;;;;;;;6.35;2.35;;;;;;;17.74;100.00;102266.78;4919788;29;20020;-80
2023/08/21 00:26:32;;;;;;;9.48;2.45;;;;;;;17.66;100.00;102269.91;4919802;29;20431;-80
2023/08/21 00:28:58;;;;;;;7.25;2.55;;;;;;;17.67;100.00;102275.94;4919843;29;20108;-80
2023/08/21 00:31:23;;;;;;;5.82;2.30;;;;;;;17.60;100.00;102272.09;4919826;29;20115;-79
2023/08/21 00:33:49;;;;;;;4.85;2.30;;;;;;;17.46;100.00;102260.00;4919684;29;20028;-79
2023/08/21 00:36:14;;;;;;;5.30;2.22;;;;;;;17.44;100.00;102251.44;4919218;29;20123;-79
2023/08/21 00:38:40;;;;;;;8.02;2.50;;;;;;;17.48;100.00;102268.56;4919627;29;20036;-79
2023/08/21 00:41:05;;;;;;;6.70;2.63;;;;;;;17.36;100.00;102251.13;4919538;29;20569;-79
2023/08/21 00:43:30;;;;;;;6.13;2.22;;;;;;;17.33;100.00;102256.56;4919494;29;20035;-80
2023/08/21 00:45:56;;;;;;;4.70;2.38;;;;;;;17.29;100.00;102262.94;4919409;29;20036;-80
2023/08/21 00:48:21;;;;;;;4.07;2.05;;;;;;;17.24;100.00;102259.81;4919463;29;20029;-79
2023/08/21 00:50:47;;;;;;;4.60;1.77;;;;;;;17.13;100.00;102260.53;4919224;29;20024;-79
2023/08/21 00:53:12;;;;;;;7.10;2.30;;;;;;;17.03;100.00;102265.56;4919468;29;20032;-79
2023/08/21 00:55:38;;;;;;;5.35;2.20;;;;;;;17.07;100.00;102271.38;4919209;29;20036;-80
2023/08/21 00:58:05;;;;;;;6.63;2.50;;;;;;;16.93;100.00;102248.84;4919296;29;20055;-79
2023/08/21 01:00:30;;;;;;;6.30;2.22;;;;;;;16.93;100.00;102248.84;4919250;29;20035;-79
2023/08/21 01:02:55;;;;;;;5.65;2.45;;;;;;;16.96;100.00;102250.41;4919181;29;20462;-79
2023/08/21 01:05:22;;;;;;;4.93;2.00;;;;;;;17.13;100.00;102281.44;4901705;29;20099;-79
2023/08/21 01:07:56;;;;;;;7.75;2.45;;;;;;;17.16;100.00;102270.78;4918984;29;20156;-79
2023/08/21 01:10:46;;;;;;;3.35;2.13;;;;;;;17.15;100.00;102259.50;4918831;29;20024;-79
2023/08/21 01:13:22;;;;;;;6.60;2.50;;;;;;;17.33;100.00;102275.69;4919038;29;20028;-79
2023/08/21 01:15:50;;;;;;;5.53;2.20;;;;;;;17.25;100.00;102251.88;4918913;29;20043;-80
2023/08/21 01:18:17;;;;;;;5.07;2.33;;;;;;;16.44;100.00;102120.84;4918378;29;20036;-78
2023/08/21 01:20:42;;;;;;;4.43;2.30;;;;;;;17.45;100.00;102277.44;4918973;29;20458;-81
2023/08/21 01:23:07;;;;;;;5.75;2.22;;;;;;;17.45;100.00;102277.44;4918811;29;20056;-78
2023/08/21 01:25:33;;;;;;;5.45;2.45;;;;;;;17.45;100.00;102271.38;4918663;29;20040;-79
2023/08/21 01:27:58;;;;;;;7.57;2.58;;;;;;;17.45;100.00;102267.00;4901294;29;20040;-79
2023/08/21 01:30:25;;;;;;;6.55;2.50;;;;;;;17.35;100.00;102260.75;4918606;29;20092;-79
2023/08/21 01:33:10;;;;;;;7.68;2.60;;;;;;;17.20;100.00;102246.94;4918267;29;20033;-79
2023/08/21 01:35:36;;;;;;;5.40;2.35;;;;;;;17.16;100.00;102252.50;4918437;29;20060;-79
2023/08/21 01:38:03;;;;;;;7.85;2.55;;;;;;;17.07;100.00;102263.56;4918385;29;20048;-79
2023/08/21 01:40:28;;;;;;;5.20;2.20;;;;;;;16.95;100.00;102246.13;4918284;29;20035;-79
2023/08/21 01:42:54;;;;;;;6.28;3.15;;;;;;;16.97;100.00;102255.50;4918386;29;20028;-79
2023/08/21 01:45:20;;;;;;;6.47;2.70;;;;;;;16.86;100.00;102252.78;4918370;29;20036;-79
2023/08/21 01:47:45;;;;;;;4.20;2.35;;;;;;;16.70;100.00;102241.69;4918384;29;20032;-79
2023/08/21 01:50:11;;;;;;;6.60;2.50;;;;;;;16.63;100.00;102247.31;4918399;29;20039;-79
2023/08/21 01:52:36;;;;;;;8.05;2.72;;;;;;;16.68;100.00;102251.38;4918232;29;20088;-79
2023/08/21 01:55:01;;;;;;;5.63;2.67;;;;;;;16.60;100.00;102249.25;4918036;29;20115;-79
2023/08/21 01:57:27;;;;;;;6.45;2.72;;;;;;;16.50;100.00;102243.81;4900632;29;20032;-79
2023/08/21 01:59:52;;;;;;;8.35;2.53;;;;;;;16.59;100.00;102265.84;4917948;29;20390;-79
2023/08/21 02:02:17;;;;;;;5.25;2.28;;;;;;;16.49;100.00;102244.75;4918038;29;20044;-78
2023/08/21 02:04:43;;;;;;;6.78;2.47;;;;;;;16.55;100.00;102262.63;4918395;29;20024;-79
2023/08/21 02:07:08;;;;;;;8.65;2.83;;;;;;;16.50;100.00;102264.66;4918074;29;20111;-79
2023/08/21 02:09:33;;;;;;;6.38;2.63;;;;;;;16.55;100.00;102264.38;4917958;29;20028;-79
2023/08/21 02:11:59;;;;;;;6.72;3.20;;;;;;;16.61;100.00;102274.41;4917831;29;20036;-79
2023/08/21 02:14:24;;;;;;;8.25;2.78;;;;;;;16.59;100.00;102271.91;4917643;29;20463;-79
2023/08/21 02:16:50;;;;;;;7.70;3.10;;;;;;;16.51;100.00;102266.34;4917820;29;20028;-79
2023/08/21 02:19:15;;;;;;;9.32;3.20;;;;;;;16.60;100.00;102275.34;4917968;29;20113;-79
2023/08/21 02:21:40;;;;;;;9.15;3.50;;;;;;;16.61;100.00;102272.63;4917885;29;20032;-79
2023/08/21 02:24:05;;;;;;;9.43;3.38;;;;;;;16.65;100.00;102275.88;4932399;29;20079;-80
2023/08/21 02:26:31;;;;;;;7.00;2.70;;;;;;;16.68;100.00;102273.09;4917737;29;20430;-80
2023/08/21 02:28:57;;;;;;;6.28;3.28;;;;;;;16.70;100.00;102271.22;4917519;29;20039;-80
2023/08/21 02:31:23;;;;;;;6.82;2.58;;;;;;;16.66;100.00;102261.91;4916985;29;20087;-79
2023/08/21 02:33:49;;;;;;;9.43;2.97;;;;;;;16.69;100.00;102259.13;4917473;29;20028;-79
2023/08/21 02:36:15;;;;;;;5.90;2.67;;;;;;;16.72;100.00;102258.09;4918415;29;20067;-79
2023/08/21 02:38:40;;;;;;;7.28;3.00;;;;;;;16.72;100.00;102264.16;4936644;29;20031;-79
2023/08/21 02:41:06;;;;;;;7.68;2.97;;;;;;;16.84;100.00;102283.38;4936587;29;20035;-79
2023/08/21 02:43:31;;;;;;;6.70;2.97;;;;;;;16.77;100.00;102264.66;4936241;29;20457;-79
2023/08/21 02:45:57;;;;;;;7.15;3.30;;;;;;;16.62;100.00;102250.00;4936205;29;20529;-79
2023/08/21 02:48:22;;;;;;;6.25;2.88;;;;;;;16.77;100.00;102279.50;4936207;29;20028;-79
2023/08/21 02:50:48;;;;;;;7.55;3.00;;;;;;;16.68;100.00;102270.50;4936149;29;20054;-79
2023/08/21 02:53:13;;;;;;;8.75;3.35;;;;;;;16.62;100.00;102279.53;4936368;29;20030;-79
2023/08/21 02:55:39;;;;;;;9.60;3.42;;;;;;;16.33;100.00;102237.09;4936151;29;20032;-79
2023/08/21 02:58:04;;;;;;;6.13;3.55;;;;;;;16.29;100.00;102251.25;4935709;29;20466;-79
2023/08/21 03:00:29;;;;;;;8.30;3.60;;;;;;;16.22;100.00;102247.41;4934395;29;20103;-79
2023/08/21 03:02:55;;;;;;;7.47;3.28;;;;;;;16.34;100.00;102272.66;4936041;29;20036;-79
2023/08/21 03:05:20;;;;;;;8.50;3.72;;;;;;;16.30;100.00;102275.56;4934306;29;20036;-79
2023/08/21 03:07:45;;;;;;;6.20;3.85;;;;;;;16.21;100.00;102265.72;4936016;29;20028;-79
2023/08/21 03:10:11;;;;;;;10.52;3.70;;;;;;;16.07;100.00;102253.56;4935749;29;20028;-79
2023/08/21 03:12:36;;;;;;;6.85;3.63;;;;;;;16.14;100.00;102262.69;4935688;29;20070;-79
2023/08/21 03:15:02;;;;;;;7.70;4.00;;;;;;;15.99;100.00;102261.88;4918717;29;20028;-79
2023/08/21 03:17:28;;;;;;;8.77;3.63;;;;;;;16.04;100.00;102275.47;4935725;29;20027;-79
2023/08/21 03:19:53;;;;;;;7.97;3.70;;;;;;;15.92;100.00;102263.16;4935618;29;20027;-79
2023/08/21 03:22:18;;;;;;;8.13;3.90;;;;;;;15.69;100.00;102225.53;4935509;29;20110;-79
2023/08/21 03:24:44;;;;;;;9.73;4.35;;;;;;;15.97;100.00;102281.13;4935766;29;20031;-79
2023/08/21 03:27:09;;;;;;;10.57;4.22;;;;;;;16.00;100.00;102281.78;4935462;29;20027;-79
2023/08/21 03:29:34;;;;;;;10.02;4.65;;;;;;;16.05;100.00;102271.06;4935739;29;20091;-79
2023/08/21 03:32:00;;;;;;;8.27;4.65;;;;;;;15.93;100.00;102262.28;4935569;29;20036;-79
2023/08/21 03:34:25;;;;;;;7.95;4.55;;;;;;;16.04;100.00;102274.63;4935568;29;20051;-79
2023/08/21 03:36:50;;;;;;;8.23;5.35;;;;;;;16.18;100.00;102278.94;4935260;29;20055;-79
2023/08/21 03:39:15;;;;;;;7.90;4.80;;;;;;;15.96;100.00;102243.00;4933612;29;20126;-79
2023/08/21 03:41:41;;;;;;;10.85;5.68;;;;;;;16.10;100.00;102265.56;4935027;29;20039;-79
2023/08/21 03:44:06;;;;;;;9.23;4.65;;;;;;;16.00;100.00;102253.09;4934791;29;20039;-79
2023/08/21 03:46:31;;;;;;;8.95;4.70;;;;;;;16.08;100.00;102267.44;4935411;29;20028;-79
2023/08/21 03:48:58;;;;;;;8.02;4.78;;;;;;;16.05;100.00;102266.69;4935385;29;20046;-79
2023/08/21 03:51:23;;;;;;;8.90;4.80;;;;;;;15.95;100.00;102256.97;4935324;29;20098;-79
2023/08/21 03:53:49;;;;;;;8.73;5.40;;;;;;;15.85;100.00;102246.28;4934915;29;20123;-78
2023/08/21 03:56:14;;;;;;;11.80;4.93;;;;;;;15.96;100.00;102266.44;4935437;29;20107;-79
2023/08/21 03:58:40;;;;;;;8.30;5.45;;;;;;;15.89;100.00;102250.34;4935192;29;20106;-79
2023/08/21 04:01:05;;;;;;;7.30;5.13;;;;;;;15.93;100.00;102253.63;4935077;29;20027;-79
2023/08/21 04:03:30;;;;;;;8.90;5.53;;;;;;;16.00;100.00;102263.53;4935290;29;20083;-79
2023/08/21 04:05:59;;;;;;;9.45;5.28;;;;;;;16.00;100.00;102266.13;4933552;29;20036;-79
2023/08/21 04:08:24;;;;;;;9.95;5.25;;;;;;;16.01;100.00;102266.97;4934960;29;20418;-79
2023/08/21 04:10:52;;;;;;;8.77;5.38;;;;;;;15.99;100.00;102276.66;4935187;29;20035;-78
2023/08/21 04:13:17;;;;;;;12.50;5.63;;;;;;;16.00;100.00;102278.34;4918481;29;20031;-79
2023/08/21 04:15:46;;;;;;;10.63;6.07;;;;;;;16.03;100.00;102283.38;4935110;29;20408;-79
2023/08/21 04:18:11;;;;;;;10.68;5.65;;;;;;;15.96;100.00;102276.88;4935175;29;20068;-79
2023/08/21 04:20:37;;;;;;;10.95;6.00;;;;;;;15.88;100.00;102256.50;4935070;29;20028;-79
2023/08/21 04:23:02;;;;;;;9.15;5.90;;;;;;;15.92;100.00;102280.56;4935219;29;20036;-79
2023/08/21 04:25:28;;;;;;;9.95;5.85;;;;;;;15.87;100.00;102272.22;4935115;29;20059;-79
2023/08/21 04:27:53;;;;;;;10.50;5.72;;;;;;;15.56;100.00;102219.41;4935203;29;20028;-79
2023/08/21 04:30:19;;;;;;;10.10;5.75;;;;;;;15.90;100.00;102269.41;4934934;29;20583;-78
2023/08/21 04:32:44;;;;;;;8.65;5.55;;;;;;;15.78;100.00;102258.84;4935184;29;20090;-79
2023/08/21 04:35:10;;;;;;;9.90;5.93;;;;;;;15.91;100.00;102278.91;4934837;29;20554;-79
2023/08/21 04:37:38;;;;;;;9.55;5.70;;;;;;;15.91;100.00;102284.13;4934877;29;20151;-78
2023/08/21 04:40:03;;;;;;;10.75;6.22;;;;;;;15.92;100.00;102285.78;4935087;29;20071;-79
2023/08/21 04:42:28;;;;;;;10.85;5.88;;;;;;;15.95;100.00;102285.63;4935023;29;20102;-78
2023/08/21 04:44:54;;;;;;;9.75;5.90;;;;;;;15.92;100.00;102264.94;4934765;29;20027;-79
2023/08/21 04:47:26;;;;;;;9.80;6.03;;;;;;;16.06;100.00;102283.16;4915047;29;20036;-78
2023/08/21 04:49:52;;;;;;;10.63;5.85;;;;;;;16.17;100.00;102285.09;4934578;29;20020;-81
2023/08/21 04:52:17;;;;;;;11.00;5.68;;;;;;;16.13;100.00;102262.78;4934820;29;20431;-81
2023/08/21 04:54:43;;;;;;;10.80;6.15;;;;;;;16.37;100.00;102292.47;4936820;29;20067;-79
2023/08/21 04:57:08;;;;;;;8.88;6.47;;;;;;;16.35;100.00;102287.38;4938253;29;20114;-79
2023/08/21 04:59:35;;;;;;;11.88;7.32;;;;;;;16.35;100.00;102279.53;4938207;29;20028;-79
2023/08/21 05:02:00;;;;;;;12.02;7.50;;;;;;;16.28;100.00;102264.41;4938330;29;20052;-79
2023/08/21 05:04:25;;;;;;;10.48;7.00;;;;;;;16.32;100.00;102266.72;4938097;29;20548;-80
2023/08/21 05:06:51;;;;;;;10.90;7.75;;;;;;;16.43;100.00;102283.44;4938357;29;20027;-79
2023/08/21 05:09:16;;;;;;;10.48;7.25;;;;;;;16.56;100.00;102298.19;4938017;29;20079;-80
2023/08/21 05:11:41;;;;;;;10.88;6.95;;;;;;;16.55;100.00;102295.69;4938016;29;20176;-79
2023/08/21 05:14:07;;;;;;;12.52;7.22;;;;;;;16.51;100.00;102296.78;4938004;29;20114;-79
2023/08/21 05:16:32;;;;;;;13.68;7.30;;;;;;;16.61;100.00;102309.13;4937859;29;20119;-80
2023/08/21 05:18:58;;;;;;;8.77;6.63;;;;;;;16.71;100.00;102319.00;4938172;29;20031;-79
2023/08/21 05:21:23;;;;;;;9.85;6.63;;;;;;;16.76;100.00;102311.72;4937983;29;20560;-80
2023/08/21 05:23:48;;;;;;;9.23;4.32;;;;;;;17.17;100.00;102308.97;4938000;29;20027;-80
2023/08/21 05:26:14;;;;;;;8.95;5.07;;;;;;;17.22;100.00;102286.03;4937711;29;20023;-80
2023/08/21 05:28:39;;;;;;;9.65;5.88;;;;;;;17.52;100.00;102311.00;4937905;29;20051;-79
2023/08/21 05:31:04;;;;;;;10.18;5.75;;;;;;;17.74;100.00;102312.03;4937445;29;20554;-80
2023/08/21 05:33:30;;;;;;;9.60;5.43;;;;;;;17.99;100.00;102316.38;4937635;29;20024;-80
2023/08/21 05:35:56;;;;;;;9.15;5.13;;;;;;;18.10;100.00;102286.88;4937554;29;20092;-80
2023/08/21 05:38:22;;;;;;;9.25;6.35;;;;;;;18.29;100.00;102321.22;4937592;29;20051;-80
2023/08/21 05:40:48;;;;;;;8.23;5.40;;;;;;;18.42;100.00;102329.00;4937615;29;20437;-79
2023/08/21 05:43:13;;;;;;;8.65;5.47;;;;;;;18.42;100.00;102321.16;4937714;29;20478;-80
2023/08/21 05:45:39;;;;;;;10.68;5.68;;;;;;;18.67;100.00;102335.91;4937298;29;20068;-80
2023/08/21 05:48:04;;;;;;;10.27;4.80;;;;;;;18.95;100.00;102339.94;4937464;29;20027;-79
2023/08/21 05:50:30;;;;;;;9.18;5.05;;;;;;;19.09;100.00;102346.78;4925154;29;20020;-78
2023/08/21 05:52:57;;;;;;;7.47;5.38;;;;;;;19.01;100.00;102308.09;4918959;29;20043;-80
2023/08/21 05:55:23;;;;;;;8.82;4.82;;;;;;;19.34;100.00;102309.09;4918070;29;20039;-78
2023/08/21 05:57:48;;;;;;;9.23;5.13;;;;;;;19.66;100.00;102338.06;4918465;29;20032;-78
2023/08/21 06:00:14;;;;;;;8.82;5.35;;;;;;;19.53;100.00;102317.19;4917774;29;20063;-78
2023/08/21 06:02:39;;;;;;;10.02;5.00;;;;;;;20.09;100.00;102332.94;4918205;29;20036;-79
2023/08/21 06:05:05;;;;;;;7.13;4.95;;;;;;;20.62;99.96;102335.69;4917180;29;20028;-78
2023/08/21 06:07:32;;;;;;;8.73;5.18;;;;;;;21.56;94.38;102331.34;4917952;29;20111;-78
2023/08/21 06:09:57;;;;;;;9.35;5.15;;;;;;;22.68;86.84;102340.75;4917698;29;20509;-79
2023/08/21 06:12:23;;;;;;;7.97;4.55;;;;;;;23.24;82.47;102306.59;4917699;29;20032;-78
2023/08/21 06:14:48;;;;;;;8.15;4.70;;;;;;;24.23;77.39;102334.03;4926206;29;20066;-77
2023/08/21 06:17:13;;;;;;;8.23;4.78;;;;;;;24.92;72.56;102344.91;4936849;29;20087;-79
2023/08/21 06:19:39;;;;;;;9.25;4.25;;;;;;;24.50;72.85;102327.06;4936795;29;20443;-77
2023/08/21 06:22:05;;;;;;;9.38;4.68;;;;;;;24.66;71.70;102343.03;4936727;29;20363;-80
2023/08/21 06:24:30;;;;;;;8.35;5.55;;;;;;;25.39;69.60;102348.06;4936563;29;20087;-79
2023/08/21 06:26:55;;;;;;;9.63;4.70;;;;;;;25.60;67.38;102319.41;4936397;29;20079;-78
2023/08/21 06:29:21;;;;;;;6.45;3.80;;;;;;;26.21;66.49;102350.06;4936620;29;20023;-78
2023/08/21 06:31:47;;;;;;;7.13;3.53;;;;;;;26.59;63.24;102345.16;4936473;29;20474;-79
2023/08/21 06:34:12;;;;;;;9.20;4.03;;;;;;;26.70;61.91;102289.19;4936813;29;20042;-79
2023/08/21 06:36:37;;;;;;;6.38;3.58;;;;;;;27.36;59.93;102342.97;4936359;29;20039;-78
2023/08/21 06:39:03;;;;;;;7.45;4.40;;;;;;;27.48;58.50;102306.25;4936404;29;20048;-79
2023/08/21 06:41:29;;;;;;;7.32;3.40;;;;;;;27.87;57.37;102346.91;4936352;29;20038;-80
2023/08/21 06:43:54;;;;;;;5.90;3.40;;;;;;;28.09;56.50;102353.28;4936151;29;20027;-79
2023/08/21 06:46:20;;;;;;;8.70;4.85;;;;;;;28.11;53.62;102347.78;4936090;29;20122;-79
2023/08/21 06:48:45;;;;;;;8.43;4.35;;;;;;;27.66;53.36;102347.53;4936407;29;20075;-79
2023/08/21 06:51:11;;;;;;;7.85;3.70;;;;;;;27.36;56.63;102313.78;4936147;29;20108;-80
2023/08/21 06:53:36;;;;;;;6.00;3.22;;;;;;;28.00;55.41;102352.47;4936259;29;20038;-81
2023/08/21 06:56:02;;;;;;;6.80;3.15;;;;;;;28.53;54.51;102348.19;4934344;29;20136;-82
2023/08/21 06:58:28;;;;;;;8.23;3.97;;;;;;;29.06;48.16;102351.72;4936168;29;20079;-80
2023/08/21 07:00:55;;;;;;;6.57;3.30;;;;;;;28.75;51.38;102332.38;4935998;29;20079;-80
2023/08/21 07:03:21;;;;;;;7.05;2.95;;;;;;;28.49;50.50;102322.13;4936061;29;20470;-80
2023/08/21 07:05:53;;;;;;;6.93;3.65;;;;;;;28.84;48.91;102345.44;4936260;29;20031;-81
2023/08/21 07:08:18;;;;;;;7.25;3.28;;;;;;;29.10;49.31;102354.84;4936082;29;20058;-82
2023/08/21 07:10:44;;;;;;;9.20;3.47;;;;;;;29.41;48.81;102362.69;4935701;29;20066;-81
2023/08/21 07:13:09;;;;;;;10.02;3.35;;;;;;;29.38;45.97;102353.19;4935940;29;20059;-81
2023/08/21 07:15:34;;;;;;;8.02;2.83;;;;;;;29.13;47.53;102354.50;4935896;29;20055;-83
2023/08/21 07:18:00;;;;;;;8.40;3.83;;;;;;;28.50;47.07;102361.00;4935761;29;20030;-82
2023/08/21 07:20:25;;;;;;;7.20;2.45;;;;;;;27.02;51.74;102348.44;4931698;29;20375;-80
2023/08/21 07:22:50;;;;;;;5.65;2.53;;;;;;;25.86;57.48;102337.03;4917321;29;20036;-79
2023/08/21 07:25:15;;;;;;;10.10;3.67;;;;;;;25.27;59.74;102358.09;4917252;29;20115;-80
2023/08/21 07:27:41;;;;;;;9.57;3.95;;;;;;;24.68;59.41;102359.59;4916642;29;20027;-80
2023/08/21 07:30:07;;;;;;;8.73;4.22;;;;;;;24.06;62.82;102340.13;4916570;29;20024;-79
2023/08/21 07:32:32;;;;;;;10.63;4.40;;;;;;;23.54;62.63;102352.97;4916330;29;20506;-77
2023/08/21 07:34:57;;;;;;;8.73;3.78;;;;;;;23.15;68.11;102350.44;4916410;29;20032;-80
2023/08/21 07:37:23;;;;;;;9.40;4.32;;;;;;;23.16;68.07;102357.38;4916160;29;20135;-78
2023/08/21 07:39:48;;;;;;;8.77;4.50;;;;;;;23.16;67.79;102365.28;4916692;29;20149;-77
2023/08/21 07:42:14;;;;;;;7.40;4.05;;;;;;;22.96;65.99;102355.75;4916458;29;20024;-79
2023/08/21 07:44:39;;;;;;;6.57;3.67;;;;;;;22.89;70.47;102338.81;4916314;29;20051;-79
2023/08/21 07:47:05;;;;;;;8.60;3.72;;;;;;;22.99;68.82;102325.63;4898929;29;20044;-80
2023/08/21 07:49:32;;;;;;;8.70;3.65;;;;;;;23.16;69.87;102341.56;4916374;29;20375;-81
2023/08/21 07:51:57;;;;;;;8.90;3.83;;;;;;;22.85;67.86;102304.03;4916577;29;20421;-82
2023/08/21 07:54:23;;;;;;;11.15;4.25;;;;;;;22.65;67.95;102299.75;4899076;29;20043;-80
2023/08/21 07:56:49;;;;;;;8.63;3.95;;;;;;;22.78;69.61;102352.13;4916577;29;20036;-80
2023/08/21 07:59:14;;;;;;;8.13;3.63;;;;;;;22.70;68.96;102349.34;4916334;29;20028;-80
2023/08/21 08:01:39;;;;;;;7.90;3.63;;;;;;;22.58;69.85;102323.16;4916034;29;20070;-79
2023/08/21 08:04:05;;;;;;;6.78;3.08;;;;;;;22.78;69.28;102341.59;4916417;29;20115;-80
2023/08/21 08:06:31;;;;;;;11.35;3.17;;;;;;;23.21;68.83;102364.03;4916462;29;20056;-79
2023/08/21 08:08:57;;;;;;;7.95;2.88;;;;;;;23.51;69.86;102368.25;4916281;29;20035;-80
2023/08/21 08:11:23;;;;;;;9.00;3.22;;;;;;;23.71;67.46;102372.53;4932553;29;20032;-80
2023/08/21 08:13:48;;;;;;;9.30;3.47;;;;;;;23.68;64.35;102352.53;4935185;29;20034;-81
2023/08/21 08:16:13;;;;;;;9.15;3.35;;;;;;;23.84;62.42;102380.09;4935098;29;20032;-81
2023/08/21 08:18:39;;;;;;;10.23;3.00;;;;;;;23.61;64.93;102354.09;4934978;29;20063;-80
2023/08/21 08:21:04;;;;;;;9.60;3.03;;;;;;;23.78;68.19;102375.38;4935281;29;20102;-81
2023/08/21 08:23:30;;;;;;;9.10;3.10;;;;;;;23.73;69.39;102362.66;4918397;29;20032;-80
2023/08/21 08:25:55;;;;;;;9.07;3.25;;;;;;;23.80;67.52;102376.94;4916868;29;20360;-80
2023/08/21 08:28:20;;;;;;;7.07;2.72;;;;;;;23.79;66.03;102379.69;4916405;29;20080;-80
2023/08/21 08:30:46;;;;;;;7.38;2.90;;;;;;;23.61;66.68;102363.81;4918148;29;20039;-80
2023/08/21 08:33:11;;;;;;;10.32;3.42;;;;;;;23.70;70.00;102370.88;4919610;29;20032;-80
2023/08/21 08:35:37;;;;;;;7.05;2.67;;;;;;;23.74;73.00;102346.66;4902456;29;20043;-80
2023/08/21 08:38:02;;;;;;;7.38;2.65;;;;;;;23.82;67.65;102353.03;4902530;29;20507;-81
2023/08/21 08:40:28;;;;;;;11.40;3.17;;;;;;;23.72;64.32;102374.19;4919563;29;20056;-80
2023/08/21 08:42:53;;;;;;;8.35;2.80;;;;;;;23.56;69.94;102369.47;4919762;29;20051;-81
2023/08/21 08:45:30;;;;;;;9.85;3.38;;;;;;;23.43;66.05;102364.53;4919776;29;20136;-81
2023/08/21 08:47:59;;;;;;;8.07;3.03;;;;;;;23.29;62.36;102330.69;4919289;29;20024;-81
2023/08/21 08:50:26;;;;;;;6.95;1.70;;;;;;;23.70;62.73;102376.97;4919215;29;20491;-80
2023/08/21 08:52:52;;;;;;;5.63;1.95;;;;;;;24.15;66.38;102370.91;4919423;29;20463;-80
2023/08/21 08:55:18;;;;;;;7.75;2.45;;;;;;;24.37;59.40;102369.66;4919397;29;20028;-80
2023/08/21 08:57:43;;;;;;;11.02;2.47;;;;;;;24.34;57.83;102371.78;4919367;29;20032;-80
2023/08/21 09:00:09;;;;;;;10.07;1.60;;;;;;;24.13;61.41;102345.63;4919386;29;20128;-79
2023/08/21 09:02:34;;;;;;;7.35;1.65;;;;;;;24.12;60.01;102373.84;4919011;29;20032;-81
2023/08/21 09:04:59;;;;;;;6.30;1.60;;;;;;;23.99;57.37;102379.47;4919362;29;20076;-80
2023/08/21 09:07:25;;;;;;;6.93;1.40;;;;;;;24.00;61.76;102367.94;4919315;29;20036;-80
2023/08/21 09:09:52;;;;;;;10.73;1.50;;;;;;;24.01;59.96;102366.97;4919266;29;20100;-79
2023/08/21 09:12:18;;;;;;;6.65;1.50;;;;;;;23.93;57.97;102369.50;4919084;29;20114;-77
2023/08/21 09:14:44;;;;;;;7.80;1.95;;;;;;;23.97;60.32;102372.66;4918917;29;20036;-78
2023/08/21 09:17:10;;;;;;;7.07;2.22;;;;;;;24.04;58.43;102356.09;4918819;29;20504;-77
2023/08/21 09:19:36;;;;;;;9.13;1.92;;;;;;;24.13;58.20;102359.66;4918920;29;20024;-79
2023/08/21 09:22:09;;;;;;;4.45;1.50;;;;;;;24.45;59.10;102353.09;4918752;29;20545;-79
2023/08/21 09:24:34;;;;;;;9.55;2.10;;;;;;;24.43;60.23;102349.78;4918855;29;20449;-79
2023/08/21 09:27:01;;;;;;;8.05;2.25;;;;;;;24.72;60.42;102363.56;4918659;29;20028;-79
2023/08/21 09:29:26;;;;;;;6.10;2.10;;;;;;;25.00;59.46;102361.66;4918689;29;20047;-79
2023/08/21 09:31:56;;;;;;;9.73;3.50;;;;;;;25.16;61.44;102363.59;4918575;29;20024;-78
2023/08/21 09:34:22;;;;;;;9.13;2.25;;;;;;;25.15;59.65;102352.19;4918505;29;20499;-79
2023/08/21 09:36:54;;;;;;;7.07;2.30;;;;;;;25.12;60.42;102349.88;4918717;29;20036;-79
2023/08/21 09:39:20;;;;;;;9.55;3.33;;;;;;;24.94;61.51;102346.41;4918387;29;20044;-79
2023/08/21 09:41:54;;;;;;;10.45;3.03;;;;;;;24.90;61.75;102360.91;4918567;29;20071;-79
2023/08/21 09:44:20;;;;;;;9.65;3.15;;;;;;;24.75;62.67;102352.69;4918150;29;20024;-78
2023/08/21 09:46:48;;;;;;;9.77;3.60;;;;;;;24.82;62.38;102363.50;4918324;29;20106;-79
2023/08/21 09:49:16;;;;;;;8.75;3.45;;;;;;;24.99;62.91;102364.47;4918396;29;20164;-80
2023/08/21 09:51:42;;;;;;;7.55;3.22;;;;;;;25.22;62.01;102360.34;4918352;29;20036;-79
2023/08/21 09:54:08;;;;;;;10.48;3.08;;;;;;;25.30;61.72;102331.31;4918157;29;20096;-79
2023/08/21 09:56:33;;;;;;;9.68;3.47;;;;;;;25.41;58.65;102359.31;4901321;29;20028;-79
2023/08/21 09:58:59;;;;;;;9.18;2.63;;;;;;;25.09;59.57;102334.34;4917993;29;20024;-79
2023/08/21 10:01:25;;;;;;;9.43;2.97;;;;;;;24.94;59.08;102340.28;4918177;29;20036;-79
2023/08/21 10:03:55;;;;;;;7.90;2.65;;;;;;;24.98;60.55;102350.41;4901313;29;20047;-80
2023/08/21 10:06:22;;;;;;;7.63;2.77;;;;;;;24.56;60.55;102292.09;4918393;29;20036;-79
2023/08/21 10:08:53;;;;;;;6.75;2.22;;;;;;;25.12;60.12;102349.88;4918017;29;20284;-79
2023/08/21 10:11:20;;;;;;;6.65;2.22;;;;;;;25.34;56.98;102350.34;4918004;29;20099;-79
2023/08/21 10:13:46;;;;;;;8.95;2.08;;;;;;;25.33;60.56;102323.06;4917672;29;20032;-79
2023/08/21 10:16:12;;;;;;;7.88;2.10;;;;;;;25.49;57.10;102335.56;4918016;29;20036;-79
2023/08/21 10:18:38;;;;;;;6.82;1.90;;;;;;;25.33;59.24;102319.59;4917573;29;20063;-79
2023/08/21 10:21:34;;;;;;;6.60;1.60;;;;;;;24.60;60.29;102208.97;4916338;29;20024;-80
2023/08/21 10:24:00;;;;;;;2.28;1.10;;;;;;;25.02;55.04;102269.84;4826186;29;20099;-78
2023/08/21 10:26:26;;;;;;;6.65;1.58;;;;;;;25.44;56.27;102345.75;4840738;29;20071;-79
2023/08/21 10:28:59;;;;;;;5.43;1.60;;;;;;;25.38;56.48;102341.94;4841308;29;20056;-80
2023/08/21 10:31:38;;;;;;;6.60;2.15;;;;;;;25.23;57.19;102340.84;4840810;29;20034;-79
2023/08/21 10:34:13;;;;;;;7.78;2.05;;;;;;;25.11;55.71;102332.34;4840438;29;20042;-79
2023/08/21 10:36:44;;;;;;;4.97;1.40;;;;;;;25.12;57.23;102341.94;4840795;29;20098;-78
2023/08/21 10:39:31;;;;;;;;;;;;;;;25.14;57.31;102339.13;4840825;29;20457;-79
2023/08/21 10:42:01;;;;;;;6.32;1.45;;;;;;;24.78;56.89;102341.00;4840664;29;20031;-78
2023/08/21 10:45:17;;;;;;;5.93;1.70;;;;;;;24.77;58.40;102345.44;4848217;29;20559;-79
2023/08/21 10:47:36;;;;;;;6.20;1.45;;;;;;;24.65;55.69;102325.53;4856304;29;20298;-79
2023/08/21 10:50:07;;;;;;;6.20;1.40;;;;;;;24.84;57.39;102337.75;4858851;29;20049;-79
2023/08/21 10:52:38;;;;;;;4.18;1.35;;;;;;;24.89;55.98;102344.25;4858449;29;20051;-79
2023/08/21 10:55:03;;;;;;;6.88;1.67;;;;;;;24.82;55.26;102345.81;4903682;29;20490;-80
2023/08/21 10:57:31;;;;;;;7.82;1.83;;;;;;;24.71;57.11;102351.34;4916923;29;20067;-79
2023/08/21 10:59:59;;;;;;;5.65;1.60;;;;;;;24.67;57.12;102339.41;4922408;29;20024;-80
2023/08/21 11:02:26;;;;;;;7.22;1.50;;;;;;;24.43;58.37;102302.25;4931409;29;20051;-80
2023/08/21 11:04:52;;;;;;;4.65;1.25;;;;;;;24.57;55.63;102336.84;4936233;29;20028;-78
2023/08/21 11:07:18;;;;;;;3.35;1.45;;;;;;;24.44;55.47;102336.41;4935475;29;20029;-80
2023/08/21 11:09:44;;;;;;;7.43;1.50;;;;;;;24.49;55.23;102334.16;4935642;29;20385;-82
2023/08/21 11:12:15;;;;;;;5.80;1.45;;;;;;;24.43;56.44;102339.22;4935866;29;20106;-82
2023/08/21 11:14:40;;;;;;;4.72;1.30;;;;;;;24.22;57.54;102308.63;4917822;29;20040;-81
2023/08/21 11:17:07;;;;;;;7.43;1.30;;;;;;;24.47;55.66;102333.47;4917717;29;20062;-81